createdAt,value
2023-02-16T00:00:35.067Z, 32.61
2023-02-16T00:01:35.078Z, 32.58
2023-02-16T00:02:35.204Z, 32.55
2023-02-16T00:03:35.210Z, 32.57
2023-02-16T00:04:35.097Z, 32.58
2023-02-16T00:05:35.107Z, 32.53
2023-02-16T00:06:35.094Z, 32.51
2023-02-16T00:07:35.108Z, 32.48
2023-02-16T00:08:35.148Z, 32.50
2023-02-16T00:09:35.135Z, 32.45
2023-02-16T00:10:35.181Z, 32.50
2023-02-16T00:11:35.160Z, 32.50
2023-02-16T00:12:35.156Z, 32.48
2023-02-16T00:13:35.147Z, 32.43
2023-02-16T00:14:35.141Z, 32.45
2023-02-16T00:15:35.181Z, 32.44
2023-02-16T00:16:35.161Z, 32.42
2023-02-16T00:17:35.187Z, 32.39
2023-02-16T00:18:35.219Z, 32.39
2023-02-16T00:19:35.210Z, 32.41
2023-02-16T00:20:35.213Z, 32.36
2023-02-16T00:21:35.256Z, 32.36
2023-02-16T00:22:35.261Z, 32.32
2023-02-16T00:23:35.333Z, 32.29
2023-02-16T00:24:35.308Z, 32.28
2023-02-16T00:25:35.341Z, 32.27
2023-02-16T00:26:35.325Z, 32.27
2023-02-16T00:27:35.328Z, 32.25
2023-02-16T00:28:35.328Z, 32.25
2023-02-16T00:29:35.368Z, 32.26
2023-02-16T00:30:35.504Z, 32.21
2023-02-16T00:31:35.477Z, 32.21
2023-02-16T00:32:35.410Z, 32.19
2023-02-16T00:33:35.410Z, 32.19
2023-02-16T00:34:35.431Z, 32.17
2023-02-16T00:35:35.618Z, 32.16
2023-02-16T00:36:35.419Z, 32.11
2023-02-16T00:37:35.461Z, 32.15
2023-02-16T00:38:35.445Z, 32.15
2023-02-16T00:39:35.466Z, 32.15
2023-02-16T00:40:35.496Z, 32.13
2023-02-16T00:41:35.478Z, 32.14
2023-02-16T00:42:35.514Z, 32.11
2023-02-16T00:43:35.521Z, 32.09
2023-02-16T00:44:35.528Z, 32.08
2023-02-16T00:45:35.499Z, 32.01
2023-02-16T00:46:35.539Z, 32.02
2023-02-16T00:47:35.506Z, 32.01
2023-02-16T00:48:35.515Z, 32.05
2023-02-16T00:49:35.526Z, 32.04
2023-02-16T00:50:35.592Z, 32.01
2023-02-16T00:51:35.572Z, 32.01
2023-02-16T00:52:35.577Z, 31.99
2023-02-16T00:53:35.614Z, 31.97
2023-02-16T00:54:35.585Z, 31.96
2023-02-16T00:55:35.591Z, 31.98
2023-02-16T00:56:35.627Z, 31.97
2023-02-16T00:57:35.656Z, 31.93
2023-02-16T00:58:35.700Z, 31.88
2023-02-16T00:59:35.672Z, 31.86
2023-02-16T01:00:35.699Z, 31.84
2023-02-16T01:01:35.771Z, 31.87
2023-02-16T01:02:35.725Z, 31.81
2023-02-16T01:03:35.709Z, 31.82
2023-02-16T01:04:35.828Z, 31.81
2023-02-16T01:05:35.745Z, 31.81
2023-02-16T01:06:35.749Z, 31.78
2023-02-16T01:07:35.718Z, 31.74
2023-02-16T01:08:35.770Z, 31.76
2023-02-16T01:09:35.791Z, 31.79
2023-02-16T01:10:35.766Z, 31.76
2023-02-16T01:11:35.789Z, 31.77
2023-02-16T01:12:35.775Z, 31.76
2023-02-16T01:13:35.825Z, 31.79
2023-02-16T01:14:35.830Z, 31.76
2023-02-16T01:15:35.883Z, 31.74
2023-02-16T01:16:35.816Z, 31.72
2023-02-16T01:17:35.866Z, 31.72
2023-02-16T01:18:35.836Z, 31.72
2023-02-16T01:19:35.858Z, 31.73
2023-02-16T01:20:35.837Z, 31.73
2023-02-16T01:21:35.835Z, 31.71
2023-02-16T01:22:35.878Z, 31.69
2023-02-16T01:23:35.860Z, 31.72
2023-02-16T01:24:35.874Z, 31.65
2023-02-16T01:25:35.873Z, 31.65
2023-02-16T01:26:35.887Z, 31.65
2023-02-16T01:27:35.893Z, 31.65
2023-02-16T01:28:35.907Z, 31.56
2023-02-16T01:29:35.913Z, 31.56
2023-02-16T01:30:35.922Z, 31.54
2023-02-16T01:31:36.148Z, 31.53
2023-02-16T01:32:36.030Z, 31.53
2023-02-16T01:33:36.025Z, 31.51
2023-02-16T01:34:36.047Z, 31.52
2023-02-16T01:35:36.097Z, 31.52
2023-02-16T01:36:36.116Z, 31.51
2023-02-16T01:37:36.074Z, 31.50
2023-02-16T01:38:36.068Z, 31.51
2023-02-16T01:39:36.075Z, 31.53
2023-02-16T01:40:36.104Z, 31.50
2023-02-16T01:41:36.120Z, 31.43
2023-02-16T01:42:36.116Z, 31.38
2023-02-16T01:43:36.156Z, 31.39
2023-02-16T01:44:36.144Z, 31.38
2023-02-16T01:45:36.172Z, 31.39
2023-02-16T01:46:36.209Z, 31.40
2023-02-16T01:47:36.195Z, 31.41
2023-02-16T01:48:36.206Z, 31.37
2023-02-16T01:49:36.221Z, 31.34
2023-02-16T01:50:36.216Z, 31.34
2023-02-16T01:51:36.216Z, 31.36
2023-02-16T01:52:36.245Z, 31.35
2023-02-16T01:53:36.252Z, 31.32
2023-02-16T01:54:36.237Z, 31.28
2023-02-16T01:55:36.227Z, 31.29
2023-02-16T01:56:36.228Z, 31.28
2023-02-16T01:57:36.248Z, 31.28
2023-02-16T01:58:36.227Z, 31.26
2023-02-16T01:59:36.244Z, 31.23
2023-02-16T02:00:36.240Z, 31.21
2023-02-16T02:01:36.259Z, 31.19
2023-02-16T02:02:36.344Z, 31.16
2023-02-16T02:03:36.268Z, 31.17
2023-02-16T02:04:36.336Z, 31.19
2023-02-16T02:05:36.319Z, 31.20
2023-02-16T02:06:36.346Z, 31.16
2023-02-16T02:07:36.321Z, 31.15
2023-02-16T02:08:36.362Z, 31.14
2023-02-16T02:09:36.413Z, 31.13
2023-02-16T02:10:36.449Z, 31.12
2023-02-16T02:11:36.391Z, 31.10
2023-02-16T02:12:36.444Z, 31.10
2023-02-16T02:13:36.444Z, 31.11
2023-02-16T02:14:36.432Z, 31.11
2023-02-16T02:15:36.487Z, 31.15
2023-02-16T02:16:36.497Z, 31.15
2023-02-16T02:17:36.487Z, 31.13
2023-02-16T02:18:36.453Z, 31.10
2023-02-16T02:19:36.533Z, 31.06
2023-02-16T02:20:36.532Z, 31.02
2023-02-16T02:21:36.504Z, 31.00
2023-02-16T02:22:36.552Z, 30.98
2023-02-16T02:23:36.537Z, 30.99
2023-02-16T02:24:36.546Z, 31.00
2023-02-16T02:25:36.538Z, 30.97
2023-02-16T02:26:36.561Z, 30.99
2023-02-16T02:27:36.548Z, 30.97
2023-02-16T02:28:36.585Z, 30.94
2023-02-16T02:29:36.609Z, 30.90
2023-02-16T02:30:36.588Z, 30.91
2023-02-16T02:31:36.687Z, 30.88
2023-02-16T02:32:36.601Z, 30.93
2023-02-16T02:33:36.631Z, 30.94
2023-02-16T02:34:36.632Z, 30.95
2023-02-16T02:35:36.617Z, 31.00
2023-02-16T02:36:36.666Z, 30.94
2023-02-16T02:37:36.651Z, 30.91
2023-02-16T02:38:36.634Z, 30.89
2023-02-16T02:39:36.688Z, 30.91
2023-02-16T02:40:36.688Z, 30.91
2023-02-16T02:41:36.728Z, 30.92
2023-02-16T02:42:36.731Z, 30.90
2023-02-16T02:43:36.783Z, 30.86
2023-02-16T02:44:36.778Z, 30.85
2023-02-16T02:45:36.751Z, 30.87
2023-02-16T02:46:36.826Z, 30.84
2023-02-16T02:47:36.758Z, 30.83
2023-02-16T02:48:36.784Z, 30.83
2023-02-16T02:49:36.809Z, 30.83
2023-02-16T02:50:36.793Z, 30.84
2023-02-16T02:51:36.769Z, 30.84
2023-02-16T02:52:36.799Z, 30.78
2023-02-16T02:53:36.853Z, 30.76
2023-02-16T02:54:36.819Z, 30.77
2023-02-16T02:55:36.872Z, 30.73
2023-02-16T02:56:36.869Z, 30.75
2023-02-16T02:57:36.868Z, 30.74
2023-02-16T02:58:36.903Z, 30.74
2023-02-16T02:59:36.881Z, 30.75
2023-02-16T03:00:36.919Z, 30.71
2023-02-16T03:01:36.961Z, 30.70
2023-02-16T03:02:36.927Z, 30.70
2023-02-16T03:03:36.922Z, 30.68
2023-02-16T03:04:36.922Z, 30.68
2023-02-16T03:05:36.936Z, 30.68
2023-02-16T03:06:36.959Z, 30.67
2023-02-16T03:07:36.996Z, 30.64
2023-02-16T03:08:36.993Z, 30.64
2023-02-16T03:09:37.009Z, 30.63
2023-02-16T03:10:37.003Z, 30.65
2023-02-16T03:11:36.996Z, 30.64
2023-02-16T03:12:37.003Z, 30.58
2023-02-16T03:13:36.991Z, 30.58
2023-02-16T03:14:37.001Z, 30.54
2023-02-16T03:15:37.021Z, 30.52
2023-02-16T03:16:37.075Z, 30.50
2023-02-16T03:17:37.048Z, 30.50
2023-02-16T03:18:37.072Z, 30.48
2023-02-16T03:19:37.159Z, 30.51
2023-02-16T03:20:37.151Z, 30.47
2023-02-16T03:21:37.145Z, 30.51
2023-02-16T03:22:37.139Z, 30.50
2023-02-16T03:23:37.135Z, 30.52
2023-02-16T03:24:37.135Z, 30.50
2023-02-16T03:25:37.130Z, 30.51
2023-02-16T03:26:37.127Z, 30.48
2023-02-16T03:27:37.172Z, 30.43
2023-02-16T03:28:37.170Z, 30.40
2023-02-16T03:29:37.170Z, 30.40
2023-02-16T03:30:37.386Z, 30.42
2023-02-16T03:31:37.380Z, 30.39
2023-02-16T03:32:37.271Z, 30.42
2023-02-16T03:33:37.249Z, 30.40
2023-02-16T03:34:37.277Z, 30.41
2023-02-16T03:35:37.256Z, 30.39
2023-02-16T03:36:37.292Z, 30.37
2023-02-16T03:37:37.298Z, 30.38
2023-02-16T03:38:37.293Z, 30.35
2023-02-16T03:39:37.331Z, 30.34
2023-02-16T03:40:37.346Z, 30.33
2023-02-16T03:41:37.371Z, 30.28
2023-02-16T03:42:37.377Z, 30.26
2023-02-16T03:43:37.384Z, 30.25
2023-02-16T03:44:37.388Z, 30.27
2023-02-16T03:45:37.415Z, 30.24
2023-02-16T03:46:37.375Z, 30.21
2023-02-16T03:47:37.370Z, 30.23
2023-02-16T03:48:37.379Z, 30.20
2023-02-16T03:49:37.367Z, 30.21
2023-02-16T03:50:37.381Z, 30.21
2023-02-16T03:51:37.378Z, 30.20
2023-02-16T03:52:37.433Z, 30.18
2023-02-16T03:53:37.424Z, 30.20
2023-02-16T03:54:37.435Z, 30.15
2023-02-16T03:55:37.439Z, 30.13
2023-02-16T03:56:37.437Z, 30.14
2023-02-16T03:57:37.439Z, 30.16
2023-02-16T03:58:37.453Z, 30.14
2023-02-16T03:59:37.451Z, 30.18
2023-02-16T04:00:37.468Z, 30.15
2023-02-16T04:01:37.501Z, 30.14
2023-02-16T04:02:37.502Z, 30.15
2023-02-16T04:03:37.519Z, 30.09
2023-02-16T04:04:37.656Z, 30.11
2023-02-16T04:05:37.572Z, 30.10
2023-02-16T04:06:37.556Z, 30.11
2023-02-16T04:07:37.586Z, 30.10
2023-02-16T04:08:37.564Z, 30.08
2023-02-16T04:09:37.569Z, 30.07
2023-02-16T04:10:37.581Z, 30.06
2023-02-16T04:11:37.678Z, 30.03
2023-02-16T04:12:37.667Z, 30.03
2023-02-16T04:13:37.644Z, 30.07
2023-02-16T04:14:37.708Z, 30.06
2023-02-16T04:15:37.722Z, 30.04
2023-02-16T04:16:37.755Z, 30.00
2023-02-16T04:17:37.718Z, 29.98
2023-02-16T04:18:37.693Z, 29.98
2023-02-16T04:19:37.702Z, 29.95
2023-02-16T04:20:37.770Z, 29.94
2023-02-16T04:21:37.783Z, 29.93
2023-02-16T04:22:37.763Z, 29.93
2023-02-16T04:23:37.759Z, 29.93
2023-02-16T04:24:37.770Z, 29.91
2023-02-16T04:25:37.777Z, 29.90
2023-02-16T04:26:37.773Z, 29.88
2023-02-16T04:27:37.831Z, 29.91
2023-02-16T04:28:37.813Z, 29.90
2023-02-16T04:29:37.822Z, 29.91
2023-02-16T04:30:37.966Z, 29.84
2023-02-16T04:31:38.075Z, 30.85
2023-02-16T04:32:37.873Z, 31.74
2023-02-16T04:33:37.877Z, 35.25
2023-02-16T04:34:37.904Z, 43.98
2023-02-16T04:35:37.884Z, 48.35
2023-02-16T04:36:37.866Z, 45.07
2023-02-16T04:37:37.878Z, 41.21
2023-02-16T04:38:37.871Z, 38.75
2023-02-16T04:39:38.029Z, 37.18
2023-02-16T04:40:38.021Z, 35.90
2023-02-16T04:41:37.990Z, 35.18
2023-02-16T04:42:38.002Z, 34.78
2023-02-16T04:43:37.995Z, 34.52
2023-02-16T04:44:37.984Z, 34.29
2023-02-16T04:45:37.982Z, 34.24
2023-02-16T04:46:37.996Z, 38.03
2023-02-16T04:47:37.984Z, 43.84
2023-02-16T04:48:37.995Z, 47.78
2023-02-16T04:49:37.989Z, 50.07
2023-02-16T04:50:37.993Z, 51.54
2023-02-16T04:51:37.995Z, 52.72
2023-02-16T04:52:37.992Z, 54.26
2023-02-16T04:53:37.999Z, 54.91
2023-02-16T04:54:38.017Z, 55.98
2023-02-16T04:55:38.017Z, 54.69
2023-02-16T04:56:38.021Z, 51.97
2023-02-16T04:57:38.038Z, 49.14
2023-02-16T04:58:38.045Z, 46.44
2023-02-16T04:59:38.039Z, 43.33
2023-02-16T05:00:38.063Z, 40.19
2023-02-16T05:01:38.105Z, 40.16
2023-02-16T05:02:38.117Z, 40.27
2023-02-16T05:03:38.089Z, 44.25
2023-02-16T05:04:38.172Z, 48.28
2023-02-16T05:05:38.137Z, 52.58
2023-02-16T05:06:38.148Z, 56.47
2023-02-16T05:07:38.175Z, 60.49
2023-02-16T05:08:38.214Z, 67.63
2023-02-16T05:09:38.289Z, 52.98
2023-02-16T05:10:38.229Z, 53.12
2023-02-16T05:11:38.217Z, 53.88
2023-02-16T05:12:38.219Z, 55.79
2023-02-16T05:13:38.211Z, 58.80
2023-02-16T05:14:38.237Z, 66.11
2023-02-16T05:15:38.273Z, 59.93
2023-02-16T05:16:38.223Z, 53.02
2023-02-16T05:17:38.256Z, 53.98
2023-02-16T05:18:38.279Z, 55.07
2023-02-16T05:19:38.276Z, 57.66
2023-02-16T05:20:38.270Z, 61.15
2023-02-16T05:21:38.311Z, 67.26
2023-02-16T05:22:38.278Z, 54.60
2023-02-16T05:23:38.290Z, 53.91
2023-02-16T05:24:38.281Z, 54.95
2023-02-16T05:25:38.328Z, 55.86
2023-02-16T05:26:38.344Z, 56.57
2023-02-16T05:27:38.329Z, 58.16
2023-02-16T05:28:38.350Z, 58.61
2023-02-16T05:29:38.326Z, 57.48
2023-02-16T05:30:38.335Z, 56.29
2023-02-16T05:31:38.477Z, 55.38
2023-02-16T05:32:38.331Z, 54.88
2023-02-16T05:33:38.383Z, 54.32
2023-02-16T05:34:38.364Z, 53.55
2023-02-16T05:35:38.367Z, 52.66
2023-02-16T05:36:38.370Z, 51.90
2023-02-16T05:37:39.130Z, 51.16
2023-02-16T05:38:38.404Z, 50.50
2023-02-16T05:39:38.412Z, 49.85
2023-02-16T05:40:38.413Z, 49.21
2023-02-16T05:41:38.471Z, 48.64
2023-02-16T05:42:38.508Z, 48.02
2023-02-16T05:43:38.502Z, 47.31
2023-02-16T05:44:38.540Z, 46.93
2023-02-16T05:45:38.539Z, 51.34
2023-02-16T05:46:38.564Z, 57.30
2023-02-16T05:47:38.502Z, 59.95
2023-02-16T05:48:38.527Z, 59.23
2023-02-16T05:49:38.555Z, 57.97
2023-02-16T05:50:38.593Z, 56.87
2023-02-16T05:51:38.577Z, 56.18
2023-02-16T05:52:38.546Z, 55.52
2023-02-16T05:53:38.597Z, 54.82
2023-02-16T05:54:38.626Z, 54.27
2023-02-16T05:55:38.600Z, 53.65
2023-02-16T05:56:38.598Z, 53.08
2023-02-16T05:57:38.630Z, 52.47
2023-02-16T05:58:38.670Z, 51.95
2023-02-16T05:59:38.630Z, 51.41
2023-02-16T06:00:38.619Z, 50.88
2023-02-16T06:01:38.620Z, 50.40
2023-02-16T06:02:38.739Z, 49.98
2023-02-16T06:03:38.691Z, 49.52
2023-02-16T06:04:38.657Z, 49.12
2023-02-16T06:05:38.666Z, 48.70
2023-02-16T06:06:38.694Z, 48.34
2023-02-16T06:07:38.672Z, 47.97
2023-02-16T06:08:38.675Z, 47.62
2023-02-16T06:09:38.685Z, 47.33
2023-02-16T06:10:38.680Z, 47.00
2023-02-16T06:11:38.786Z, 46.72
2023-02-16T06:12:38.734Z, 46.47
2023-02-16T06:13:38.712Z, 46.34
2023-02-16T06:14:38.756Z, 50.31
2023-02-16T06:15:38.761Z, 56.02
2023-02-16T06:16:38.762Z, 58.94
2023-02-16T06:17:38.793Z, 60.73
2023-02-16T06:18:38.789Z, 60.29
2023-02-16T06:19:38.877Z, 59.86
2023-02-16T06:20:38.843Z, 59.34
2023-02-16T06:21:38.875Z, 58.80
2023-02-16T06:22:38.856Z, 58.29
2023-02-16T06:23:38.836Z, 57.81
2023-02-16T06:24:39.913Z, 57.43
2023-02-16T06:25:38.846Z, 57.08
2023-02-16T06:26:38.889Z, 56.69
2023-02-16T06:27:38.872Z, 56.35
2023-02-16T06:28:38.924Z, 56.09
2023-02-16T06:29:38.897Z, 55.83
2023-02-16T06:30:38.952Z, 55.54
2023-02-16T06:31:39.118Z, 55.31
2023-02-16T06:32:38.971Z, 55.03
2023-02-16T06:33:38.925Z, 54.69
2023-02-16T06:34:38.934Z, 54.47
2023-02-16T06:35:39.003Z, 54.27
2023-02-16T06:36:41.341Z, 54.08
2023-02-16T06:37:38.991Z, 53.84
2023-02-16T06:38:38.995Z, 53.64
2023-02-16T06:39:39.021Z, 53.40
2023-02-16T06:40:39.014Z, 53.17
2023-02-16T06:41:39.057Z, 52.95
2023-02-16T06:42:39.045Z, 52.76
2023-02-16T06:43:39.051Z, 52.56
2023-02-16T06:44:39.100Z, 52.35
2023-02-16T06:45:39.083Z, 52.14
2023-02-16T06:46:39.156Z, 51.95
2023-02-16T06:47:39.082Z, 51.78
2023-02-16T06:48:39.074Z, 51.69
2023-02-16T06:49:39.085Z, 51.48
2023-02-16T06:50:39.082Z, 51.34
2023-02-16T06:51:39.096Z, 51.10
2023-02-16T06:52:39.157Z, 51.03
2023-02-16T06:53:39.159Z, 50.79
2023-02-16T06:54:39.274Z, 50.71
2023-02-16T06:55:39.284Z, 50.51
2023-02-16T06:56:39.242Z, 50.38
2023-02-16T06:57:39.277Z, 50.25
2023-02-16T06:58:39.257Z, 50.09
2023-02-16T06:59:39.240Z, 49.97
2023-02-16T07:00:39.299Z, 49.83
2023-02-16T07:01:39.241Z, 49.73
2023-02-16T07:02:39.241Z, 49.59
2023-02-16T07:03:39.352Z, 49.49
2023-02-16T07:04:39.261Z, 49.38
2023-02-16T07:05:39.241Z, 49.26
2023-02-16T07:06:39.237Z, 49.08
2023-02-16T07:07:39.290Z, 48.94
2023-02-16T07:08:39.293Z, 48.86
2023-02-16T07:09:39.313Z, 48.72
2023-02-16T07:10:49.434Z, 48.65
2023-02-16T07:11:39.331Z, 48.49
2023-02-16T07:12:39.320Z, 48.38
2023-02-16T07:13:39.320Z, 48.25
2023-02-16T07:14:39.370Z, 48.17
2023-02-16T07:15:39.384Z, 48.11
2023-02-16T07:16:39.511Z, 48.00
2023-02-16T07:17:39.359Z, 47.90
2023-02-16T07:18:39.377Z, 47.76
2023-02-16T07:19:39.379Z, 47.75
2023-02-16T07:20:39.384Z, 47.58
2023-02-16T07:21:39.381Z, 47.57
2023-02-16T07:22:39.431Z, 47.43
2023-02-16T07:23:39.440Z, 47.37
2023-02-16T07:24:39.444Z, 47.33
2023-02-16T07:25:39.440Z, 47.19
2023-02-16T07:26:39.523Z, 47.02
2023-02-16T07:27:39.547Z, 46.98
2023-02-16T07:28:39.554Z, 46.90
2023-02-16T07:29:39.635Z, 46.83
2023-02-16T07:30:39.560Z, 46.82
2023-02-16T07:31:39.731Z, 46.76
2023-02-16T07:32:39.543Z, 46.64
2023-02-16T07:33:39.586Z, 46.56
2023-02-16T07:34:39.596Z, 46.52
2023-02-16T07:35:39.601Z, 46.32
2023-02-16T07:36:39.568Z, 46.21
2023-02-16T07:37:39.612Z, 46.21
2023-02-16T07:38:39.636Z, 46.10
2023-02-16T07:39:39.619Z, 46.00
2023-02-16T07:40:39.626Z, 45.97
2023-02-16T07:41:39.651Z, 45.91
2023-02-16T07:42:39.628Z, 45.82
2023-02-16T07:43:39.625Z, 45.77
2023-02-16T07:44:39.615Z, 45.73
2023-02-16T07:45:39.775Z, 45.73
2023-02-16T07:46:39.671Z, 45.69
2023-02-16T07:47:39.681Z, 45.56
2023-02-16T07:48:39.672Z, 45.48
2023-02-16T07:49:39.676Z, 45.39
2023-02-16T07:50:39.739Z, 45.36
2023-02-16T07:51:39.739Z, 45.29
2023-02-16T07:52:39.718Z, 45.26
2023-02-16T07:53:39.781Z, 45.18
2023-02-16T07:54:39.741Z, 45.11
2023-02-16T07:55:39.742Z, 45.03
2023-02-16T07:56:39.773Z, 44.97
2023-02-16T07:57:39.792Z, 44.91
2023-02-16T07:58:39.779Z, 44.85
2023-02-16T07:59:39.815Z, 44.75
2023-02-16T08:00:39.800Z, 44.73
2023-02-16T08:01:39.806Z, 44.67
2023-02-16T08:02:39.920Z, 44.65
2023-02-16T08:03:39.818Z, 44.60
2023-02-16T08:04:39.866Z, 44.57
2023-02-16T08:05:39.944Z, 44.49
2023-02-16T08:06:39.966Z, 44.44
2023-02-16T08:07:39.944Z, 44.39
2023-02-16T08:08:39.929Z, 44.34
2023-02-16T08:09:39.923Z, 44.24
2023-02-16T08:10:39.937Z, 44.23
2023-02-16T08:11:39.932Z, 44.22
2023-02-16T08:12:39.948Z, 44.22
2023-02-16T08:13:39.940Z, 44.08
2023-02-16T08:14:39.983Z, 44.06
2023-02-16T08:15:40.000Z, 43.97
2023-02-16T08:16:40.098Z, 43.91
2023-02-16T08:17:39.986Z, 43.89
2023-02-16T08:18:40.083Z, 43.93
2023-02-16T08:19:39.997Z, 43.80
2023-02-16T08:21:01.365Z, 43.83
2023-02-16T08:21:40.022Z, 43.83
2023-02-16T08:22:40.072Z, 43.75
2023-02-16T08:23:40.066Z, 43.73
2023-02-16T08:24:40.059Z, 43.63
2023-02-16T08:25:40.084Z, 43.64
2023-02-16T08:26:40.074Z, 43.57
2023-02-16T08:27:40.121Z, 43.55
2023-02-16T08:28:40.101Z, 43.49
2023-02-16T08:29:40.124Z, 43.33
2023-02-16T08:30:40.116Z, 43.33
2023-02-16T08:31:40.322Z, 43.32
2023-02-16T08:32:40.131Z, 43.26
2023-02-16T08:33:40.147Z, 43.11
2023-02-16T08:34:42.941Z, 43.07
2023-02-16T08:35:40.125Z, 43.11
2023-02-16T08:36:40.238Z, 43.07
2023-02-16T08:37:45.252Z, 42.96
2023-02-16T08:38:40.202Z, 42.95
2023-02-16T08:39:40.266Z, 42.95
2023-02-16T08:40:40.260Z, 42.90
2023-02-16T08:41:40.230Z, 42.90
2023-02-16T08:42:40.218Z, 42.82
2023-02-16T08:43:40.236Z, 42.75
2023-02-16T08:44:40.242Z, 42.74
2023-02-16T08:45:40.284Z, 42.74
2023-02-16T08:46:40.308Z, 42.66
2023-02-16T08:47:40.292Z, 42.57
2023-02-16T08:48:40.305Z, 42.50
2023-02-16T08:49:40.293Z, 42.49
2023-02-16T08:50:40.321Z, 42.47
2023-02-16T08:51:40.326Z, 42.43
2023-02-16T08:52:40.333Z, 42.40
2023-02-16T08:53:40.356Z, 42.41
2023-02-16T08:54:40.343Z, 42.33
2023-02-16T08:55:40.343Z, 42.24
2023-02-16T08:56:40.373Z, 42.21
2023-02-16T08:57:40.385Z, 42.19
2023-02-16T08:58:40.377Z, 42.20
2023-02-16T08:59:40.446Z, 42.20
2023-02-16T09:00:40.378Z, 42.13
2023-02-16T09:01:40.528Z, 42.14
2023-02-16T09:02:40.501Z, 42.12
2023-02-16T09:03:40.432Z, 42.04
2023-02-16T09:04:40.442Z, 41.97
2023-02-16T09:05:40.426Z, 42.03
2023-02-16T09:06:40.436Z, 41.94
2023-02-16T09:07:40.460Z, 41.89
2023-02-16T09:08:40.496Z, 41.87
2023-02-16T09:09:41.782Z, 41.81
2023-02-16T09:10:40.477Z, 41.68
2023-02-16T09:11:40.475Z, 41.66
2023-02-16T09:12:40.482Z, 41.71
2023-02-16T09:13:40.504Z, 41.67
2023-02-16T09:14:40.511Z, 41.64
2023-02-16T09:15:40.641Z, 41.58
2023-02-16T09:16:40.609Z, 41.54
2023-02-16T09:17:40.594Z, 41.50
2023-02-16T09:18:40.579Z, 41.49
2023-02-16T09:19:40.599Z, 41.49
2023-02-16T09:20:40.618Z, 41.46
2023-02-16T09:21:40.632Z, 41.37
2023-02-16T09:22:40.629Z, 41.29
2023-02-16T09:23:41.404Z, 41.32
2023-02-16T09:24:40.614Z, 41.33
2023-02-16T09:25:40.681Z, 41.21
2023-02-16T09:26:40.656Z, 41.24
2023-02-16T09:27:40.654Z, 41.27
2023-02-16T09:28:40.685Z, 41.18
2023-02-16T09:29:40.663Z, 41.20
2023-02-16T09:30:40.753Z, 41.16
2023-02-16T09:31:40.769Z, 41.10
2023-02-16T09:32:40.723Z, 41.08
2023-02-16T09:33:40.737Z, 41.00
2023-02-16T09:34:40.757Z, 40.99
2023-02-16T09:35:40.767Z, 41.03
2023-02-16T09:36:40.780Z, 41.00
2023-02-16T09:37:40.805Z, 40.96
2023-02-16T09:38:40.803Z, 40.88
2023-02-16T09:39:40.796Z, 40.83
2023-02-16T09:40:40.775Z, 40.85
2023-02-16T09:41:40.823Z, 40.84
2023-02-16T09:42:40.837Z, 40.71
2023-02-16T09:43:40.855Z, 40.73
2023-02-16T09:44:40.821Z, 40.73
2023-02-16T09:45:40.821Z, 40.66
2023-02-16T09:46:40.893Z, 40.55
2023-02-16T09:47:40.842Z, 40.58
2023-02-16T09:48:40.828Z, 40.61
2023-02-16T09:49:40.867Z, 40.52
2023-02-16T09:50:53.479Z, 40.49
2023-02-16T09:51:40.898Z, 40.51
2023-02-16T09:52:40.890Z, 40.48
2023-02-16T09:53:40.895Z, 40.42
2023-02-16T09:54:40.941Z, 40.42
2023-02-16T09:55:40.968Z, 40.44
2023-02-16T09:56:40.949Z, 40.42
2023-02-16T09:57:40.935Z, 40.39
2023-02-16T09:58:40.928Z, 40.28
2023-02-16T09:59:40.947Z, 40.28
2023-02-16T10:00:41.024Z, 40.20
2023-02-16T10:01:41.015Z, 40.18
2023-02-16T10:02:41.045Z, 40.25
2023-02-16T10:03:40.972Z, 40.15
2023-02-16T10:04:40.977Z, 40.13
2023-02-16T10:05:40.984Z, 40.08
2023-02-16T10:06:40.994Z, 40.06
2023-02-16T10:07:41.014Z, 40.03
2023-02-16T10:08:41.053Z, 40.03
2023-02-16T10:09:41.119Z, 40.03
2023-02-16T10:10:41.122Z, 40.04
2023-02-16T10:11:41.130Z, 40.01
2023-02-16T10:12:41.145Z, 40.01
2023-02-16T10:13:41.123Z, 40.04
2023-02-16T10:14:41.155Z, 39.94
2023-02-16T10:15:41.265Z, 39.96
2023-02-16T10:16:41.190Z, 39.86
2023-02-16T10:17:41.148Z, 39.88
2023-02-16T10:18:41.168Z, 39.91
2023-02-16T10:19:41.154Z, 39.88
2023-02-16T10:20:41.159Z, 40.55
2023-02-16T10:21:41.152Z, 44.29
2023-02-16T10:22:41.207Z, 48.42
2023-02-16T10:23:41.235Z, 53.15
2023-02-16T10:24:41.223Z, 57.70
2023-02-16T10:25:41.230Z, 64.42
2023-02-16T10:26:41.254Z, 64.81
2023-02-16T10:27:41.308Z, 53.10
2023-02-16T10:28:41.305Z, 53.69
2023-02-16T10:29:41.298Z, 54.85
2023-02-16T10:30:41.331Z, 56.84
2023-02-16T10:31:41.405Z, 59.79
2023-02-16T10:32:43.988Z, 68.47
2023-02-16T10:33:41.307Z, 55.90
2023-02-16T10:34:41.300Z, 53.40
2023-02-16T10:35:41.308Z, 54.55
2023-02-16T10:36:41.314Z, 55.60
2023-02-16T10:37:41.316Z, 56.33
2023-02-16T10:38:41.347Z, 56.69
2023-02-16T10:39:41.352Z, 56.90
2023-02-16T10:40:41.344Z, 56.98
2023-02-16T10:41:41.366Z, 57.07
2023-02-16T10:42:41.376Z, 57.02
2023-02-16T10:43:41.402Z, 56.92
2023-02-16T10:44:41.405Z, 56.87
2023-02-16T10:45:41.453Z, 56.73
2023-02-16T10:46:41.588Z, 56.74
2023-02-16T10:47:41.466Z, 56.66
2023-02-16T10:48:41.520Z, 56.48
2023-02-16T10:49:41.489Z, 56.41
2023-02-16T10:50:41.513Z, 56.30
2023-02-16T10:51:41.489Z, 56.17
2023-02-16T10:52:41.485Z, 55.99
2023-02-16T10:53:41.501Z, 55.91
2023-02-16T10:54:41.538Z, 55.69
2023-02-16T10:55:41.526Z, 55.45
2023-02-16T10:56:41.527Z, 55.33
2023-02-16T10:57:41.516Z, 55.19
2023-02-16T10:58:41.607Z, 55.02
2023-02-16T10:59:41.564Z, 54.91
2023-02-16T11:00:41.560Z, 54.78
2023-02-16T11:01:41.685Z, 55.87
2023-02-16T11:02:41.617Z, 55.92
2023-02-16T11:03:41.605Z, 54.81
2023-02-16T11:04:41.694Z, 52.64
2023-02-16T11:05:41.626Z, 50.86
2023-02-16T11:06:41.641Z, 49.16
2023-02-16T11:07:41.614Z, 47.22
2023-02-16T11:08:41.626Z, 44.79
2023-02-16T11:09:41.666Z, 42.64
2023-02-16T11:10:41.718Z, 41.37
2023-02-16T11:11:41.680Z, 40.58
2023-02-16T11:12:41.664Z, 40.00
2023-02-16T11:13:41.687Z, 39.62
2023-02-16T11:14:41.673Z, 39.20
2023-02-16T11:15:41.722Z, 38.75
2023-02-16T11:16:41.692Z, 38.37
2023-02-16T11:17:41.767Z, 37.89
2023-02-16T11:18:41.742Z, 37.55
2023-02-16T11:19:41.763Z, 37.09
2023-02-16T11:20:41.766Z, 36.63
2023-02-16T11:21:41.745Z, 36.30
2023-02-16T11:22:41.746Z, 40.03
2023-02-16T11:23:41.758Z, 45.22
2023-02-16T11:24:41.756Z, 47.82
2023-02-16T11:25:41.820Z, 46.61
2023-02-16T11:26:41.793Z, 45.14
2023-02-16T11:27:41.787Z, 43.90
2023-02-16T11:28:41.795Z, 42.77
2023-02-16T11:29:41.799Z, 41.78
2023-02-16T11:30:41.931Z, 41.09
2023-02-16T11:31:41.930Z, 41.28
2023-02-16T11:32:41.902Z, 41.20
2023-02-16T11:33:41.909Z, 41.21
2023-02-16T11:34:41.870Z, 41.07
2023-02-16T11:35:41.867Z, 40.87
2023-02-16T11:36:41.908Z, 40.71
2023-02-16T11:37:41.904Z, 40.58
2023-02-16T11:38:41.924Z, 40.44
2023-02-16T11:39:41.917Z, 40.32
2023-02-16T11:40:41.925Z, 40.17
2023-02-16T11:41:42.003Z, 40.03
2023-02-16T11:42:41.939Z, 39.93
2023-02-16T11:43:41.964Z, 39.81
2023-02-16T11:44:41.950Z, 39.72
2023-02-16T11:45:41.928Z, 39.57
2023-02-16T11:46:41.975Z, 39.45
2023-02-16T11:47:41.952Z, 39.34
2023-02-16T11:48:42.027Z, 39.25
2023-02-16T11:49:42.022Z, 39.13
2023-02-16T11:50:42.041Z, 39.00
2023-02-16T11:51:42.007Z, 38.87
2023-02-16T11:52:42.002Z, 38.78
2023-02-16T11:53:42.011Z, 38.64
2023-02-16T11:54:42.020Z, 38.49
2023-02-16T11:55:42.069Z, 38.40
2023-02-16T11:56:42.072Z, 38.29
2023-02-16T11:57:42.136Z, 38.19
2023-02-16T11:58:42.103Z, 38.07
2023-02-16T11:59:42.127Z, 37.96
2023-02-16T12:00:42.149Z, 37.85
2023-02-16T12:01:42.123Z, 37.74
2023-02-16T12:02:42.173Z, 37.63
2023-02-16T12:03:42.206Z, 37.57
2023-02-16T12:04:42.183Z, 37.46
2023-02-16T12:05:42.161Z, 37.39
2023-02-16T12:06:42.180Z, 37.31
2023-02-16T12:07:42.161Z, 37.21
2023-02-16T12:08:42.219Z, 37.11
2023-02-16T12:09:42.252Z, 37.01
2023-02-16T12:10:42.241Z, 36.91
2023-02-16T12:11:42.221Z, 36.86
2023-02-16T12:12:42.240Z, 36.75
2023-02-16T12:13:42.260Z, 36.69
2023-02-16T12:14:42.228Z, 36.61
2023-02-16T12:15:42.298Z, 36.50
2023-02-16T12:16:42.461Z, 36.41
2023-02-16T12:17:42.350Z, 36.33
2023-02-16T12:18:42.378Z, 36.27
2023-02-16T12:19:42.360Z, 36.23
2023-02-16T12:20:42.361Z, 36.16
2023-02-16T12:21:42.345Z, 36.05
2023-02-16T12:22:42.355Z, 35.97
2023-02-16T12:23:42.401Z, 35.92
2023-02-16T12:24:42.348Z, 35.85
2023-02-16T12:25:42.379Z, 35.81
2023-02-16T12:26:42.343Z, 35.72
2023-02-16T12:27:42.346Z, 35.65
2023-02-16T12:28:42.438Z, 35.55